Overview Statistics Trail Chart Weather Telemetry Raw packets
 

This is the latest recevied weather packets stored in our database for station/object AJ1L. If no packets are shown the sender has not sent any weather packets the latest 10 day(s).

<< 24 25 26 27 28 29 30 >>
Time Temp. Humidity Pressure Rain* Wind** Luminosity Snow
1787843205 25.56° C 71% 1018.2 hPa 0 mm - - -
1787842213 25.56° C 73% 1018.2 hPa 0 mm - - -
1787841203 25° C 77% 1018.4 hPa 0 mm - - -
1787840206 25° C 79% 1018.4 hPa 0 mm - - -
1787838203 23.33° C 83% 1018.5 hPa 0 mm - - -
1787835204 21.11° C 94% 1018.5 hPa 0 mm - - -
1787832203 18.33° C 95% 1018.7 hPa 0 mm - - -
1787831212 17.78° C 95% 1018.7 hPa 0 mm - - -
1787829214 17.78° C 95% 1018.6 hPa 0 mm - - -
1787827205 17.22° C 95% 1018.3 hPa 0 mm - - -
1787825206 17.22° C 94% 1018.2 hPa 0 mm - - -
1787824202 17.22° C 94% 1018.2 hPa 0 mm - - -
1787823202 17.22° C 94% 1018 hPa 0 mm - - -
1787822206 17.22° C 94% 1018 hPa 0 mm - - -
1787821213 17.22° C 94% 1017.9 hPa 0 mm - - -
1787820203 17.22° C 94% 1017.9 hPa 0 mm - - -
1787818203 17.22° C 94% 1018 hPa 0 mm - - -
1787815202 17.22° C 94% 1017.8 hPa 0 mm - - -
1787814202 17.22° C 94% 1017.9 hPa 0 mm - - -
1787813207 17.22° C 94% 1017.9 hPa 0 mm - - -
1787812203 17.22° C 94% 1018 hPa 0 mm - - -
1787810206 17.22° C 93% 1018.2 hPa 0 mm - - -
1787809208 17.78° C 93% 1018.1 hPa 0 mm - - -
1787808203 17.78° C 93% 1018.2 hPa 0 mm - - -
1787807202 17.78° C 92% 1018.2 hPa 0 mm - - -

* Rain latest hour (hover to see other rain measurements)
** Current wind speed in m/s (hover to see current wind gust speed)